sensor_id;sensor_type;location;lat;lon;timestamp;P1;durP1;ratioP1;P2;durP2;ratioP2
9657;SDS011;4867;48.112;11.622;2023-04-23T00:00:05;4.10;;;3.50;;
9657;SDS011;4867;48.112;11.622;2023-04-23T00:02:38;4.80;;;3.43;;
9657;SDS011;4867;48.112;11.622;2023-04-23T00:05:08;5.67;;;3.43;;
9657;SDS011;4867;48.112;11.622;2023-04-23T00:07:36;4.63;;;3.77;;
9657;SDS011;4867;48.112;11.622;2023-04-23T00:10:04;4.27;;;3.77;;
9657;SDS011;4867;48.112;11.622;2023-04-23T00:12:34;3.83;;;3.30;;
9657;SDS011;4867;48.112;11.622;2023-04-23T00:15:02;4.63;;;3.40;;
9657;SDS011;4867;48.112;11.622;2023-04-23T00:17:30;5.73;;;3.37;;
9657;SDS011;4867;48.112;11.622;2023-04-23T00:19:58;3.13;;;2.70;;
9657;SDS011;4867;48.112;11.622;2023-04-23T00:22:25;4.00;;;3.00;;
9657;SDS011;4867;48.112;11.622;2023-04-23T00:24:53;5.77;;;2.90;;
9657;SDS011;4867;48.112;11.622;2023-04-23T00:27:20;5.37;;;3.10;;
9657;SDS011;4867;48.112;11.622;2023-04-23T00:29:48;3.47;;;3.17;;
9657;SDS011;4867;48.112;11.622;2023-04-23T00:32:17;5.57;;;3.60;;
9657;SDS011;4867;48.112;11.622;2023-04-23T00:34:44;4.40;;;3.20;;
9657;SDS011;4867;48.112;11.622;2023-04-23T00:37:14;4.70;;;3.20;;
9657;SDS011;4867;48.112;11.622;2023-04-23T00:39:42;6.67;;;3.63;;
9657;SDS011;4867;48.112;11.622;2023-04-23T00:42:09;3.23;;;2.90;;
9657;SDS011;4867;48.112;11.622;2023-04-23T00:44:38;4.10;;;3.57;;
9657;SDS011;4867;48.112;11.622;2023-04-23T00:47:06;3.90;;;3.47;;
9657;SDS011;4867;48.112;11.622;2023-04-23T00:49:34;5.57;;;3.03;;
9657;SDS011;4867;48.112;11.622;2023-04-23T00:52:03;4.20;;;3.57;;
9657;SDS011;4867;48.112;11.622;2023-04-23T00:54:30;4.43;;;3.57;;
9657;SDS011;4867;48.112;11.622;2023-04-23T00:56:57;4.37;;;3.50;;
9657;SDS011;4867;48.112;11.622;2023-04-23T00:59:26;3.37;;;3.07;;
9657;SDS011;4867;48.112;11.622;2023-04-23T01:01:54;4.30;;;3.30;;
9657;SDS011;4867;48.112;11.622;2023-04-23T01:04:22;3.37;;;3.00;;
9657;SDS011;4867;48.112;11.622;2023-04-23T01:06:52;8.37;;;3.20;;
9657;SDS011;4867;48.112;11.622;2023-04-23T01:09:20;3.73;;;3.20;;
9657;SDS011;4867;48.112;11.622;2023-04-23T01:11:49;4.83;;;3.13;;
9657;SDS011;4867;48.112;11.622;2023-04-23T01:14:17;3.60;;;3.20;;
9657;SDS011;4867;48.112;11.622;2023-04-23T01:16:44;3.87;;;3.07;;
9657;SDS011;4867;48.112;11.622;2023-04-23T01:19:12;5.10;;;3.27;;
9657;SDS011;4867;48.112;11.622;2023-04-23T01:21:41;3.77;;;3.23;;
9657;SDS011;4867;48.112;11.622;2023-04-23T01:24:09;5.90;;;3.50;;
9657;SDS011;4867;48.112;11.622;2023-04-23T01:26:37;4.77;;;3.27;;
9657;SDS011;4867;48.112;11.622;2023-04-23T01:29:05;5.43;;;3.43;;
9657;SDS011;4867;48.112;11.622;2023-04-23T01:31:33;5.17;;;3.50;;
9657;SDS011;4867;48.112;11.622;2023-04-23T01:34:00;4.80;;;3.40;;
9657;SDS011;4867;48.112;11.622;2023-04-23T01:36:28;4.27;;;3.33;;
9657;SDS011;4867;48.112;11.622;2023-04-23T01:38:57;5.03;;;3.23;;
9657;SDS011;4867;48.112;11.622;2023-04-23T01:41:24;4.23;;;3.10;;
9657;SDS011;4867;48.112;11.622;2023-04-23T01:43:51;3.47;;;3.17;;
9657;SDS011;4867;48.112;11.622;2023-04-23T01:46:19;3.63;;;3.10;;
9657;SDS011;4867;48.112;11.622;2023-04-23T01:48:47;4.37;;;3.33;;
9657;SDS011;4867;48.112;11.622;2023-04-23T01:51:15;4.57;;;3.73;;
9657;SDS011;4867;48.112;11.622;2023-04-23T01:53:42;4.43;;;3.00;;
9657;SDS011;4867;48.112;11.622;2023-04-23T01:56:09;5.63;;;3.27;;
9657;SDS011;4867;48.112;11.622;2023-04-23T01:58:37;4.30;;;3.30;;
9657;SDS011;4867;48.112;11.622;2023-04-23T02:01:04;4.40;;;3.20;;
9657;SDS011;4867;48.112;11.622;2023-04-23T02:03:31;3.60;;;3.30;;
9657;SDS011;4867;48.112;11.622;2023-04-23T02:06:00;4.17;;;3.40;;
9657;SDS011;4867;48.112;11.622;2023-04-23T02:08:27;3.67;;;3.17;;
9657;SDS011;4867;48.112;11.622;2023-04-23T02:10:54;3.30;;;3.00;;
9657;SDS011;4867;48.112;11.622;2023-04-23T02:13:22;5.73;;;4.10;;
9657;SDS011;4867;48.112;11.622;2023-04-23T02:15:49;4.80;;;3.20;;
9657;SDS011;4867;48.112;11.622;2023-04-23T02:18:16;3.60;;;2.93;;
9657;SDS011;4867;48.112;11.622;2023-04-23T02:20:43;4.33;;;3.30;;
9657;SDS011;4867;48.112;11.622;2023-04-23T02:23:11;7.07;;;3.30;;
9657;SDS011;4867;48.112;11.622;2023-04-23T02:25:38;3.03;;;2.83;;
9657;SDS011;4867;48.112;11.622;2023-04-23T02:28:05;4.53;;;3.50;;
9657;SDS011;4867;48.112;11.622;2023-04-23T02:30:34;5.50;;;3.37;;
9657;SDS011;4867;48.112;11.622;2023-04-23T02:33:01;4.97;;;3.20;;
9657;SDS011;4867;48.112;11.622;2023-04-23T02:35:29;4.73;;;3.77;;
9657;SDS011;4867;48.112;11.622;2023-04-23T02:37:57;4.60;;;3.40;;
9657;SDS011;4867;48.112;11.622;2023-04-23T02:40:24;4.77;;;3.40;;
9657;SDS011;4867;48.112;11.622;2023-04-23T02:42:51;4.90;;;3.60;;
9657;SDS011;4867;48.112;11.622;2023-04-23T02:45:19;4.27;;;3.60;;
9657;SDS011;4867;48.112;11.622;2023-04-23T02:47:49;5.70;;;3.70;;
9657;SDS011;4867;48.112;11.622;2023-04-23T02:50:17;3.93;;;3.20;;
9657;SDS011;4867;48.112;11.622;2023-04-23T02:52:45;5.00;;;3.20;;
9657;SDS011;4867;48.112;11.622;2023-04-23T02:55:13;3.53;;;3.23;;
9657;SDS011;4867;48.112;11.622;2023-04-23T02:57:41;3.93;;;3.53;;
9657;SDS011;4867;48.112;11.622;2023-04-23T03:00:09;4.37;;;3.40;;
9657;SDS011;4867;48.112;11.622;2023-04-23T03:02:40;5.07;;;3.50;;
9657;SDS011;4867;48.112;11.622;2023-04-23T03:05:08;4.90;;;3.27;;
9657;SDS011;4867;48.112;11.622;2023-04-23T03:07:35;4.63;;;3.70;;
9657;SDS011;4867;48.112;11.622;2023-04-23T03:10:03;5.03;;;3.40;;
9657;SDS011;4867;48.112;11.622;2023-04-23T03:12:31;4.07;;;3.37;;
9657;SDS011;4867;48.112;11.622;2023-04-23T03:14:59;3.93;;;3.37;;
9657;SDS011;4867;48.112;11.622;2023-04-23T03:17:29;4.03;;;3.63;;
9657;SDS011;4867;48.112;11.622;2023-04-23T03:19:57;4.40;;;3.33;;
9657;SDS011;4867;48.112;11.622;2023-04-23T03:22:24;5.83;;;3.60;;
9657;SDS011;4867;48.112;11.622;2023-04-23T03:24:51;5.07;;;3.53;;
9657;SDS011;4867;48.112;11.622;2023-04-23T03:27:19;3.90;;;3.50;;
9657;SDS011;4867;48.112;11.622;2023-04-23T03:29:47;5.97;;;4.10;;
9657;SDS011;4867;48.112;11.622;2023-04-23T03:32:14;4.00;;;3.50;;
9657;SDS011;4867;48.112;11.622;2023-04-23T03:34:42;4.33;;;3.30;;
9657;SDS011;4867;48.112;11.622;2023-04-23T03:37:10;4.77;;;3.63;;
9657;SDS011;4867;48.112;11.622;2023-04-23T03:39:38;4.63;;;3.73;;
9657;SDS011;4867;48.112;11.622;2023-04-23T03:42:07;4.40;;;3.80;;
9657;SDS011;4867;48.112;11.622;2023-04-23T03:44:36;5.40;;;4.03;;
9657;SDS011;4867;48.112;11.622;2023-04-23T03:47:04;5.10;;;4.00;;
9657;SDS011;4867;48.112;11.622;2023-04-23T03:49:32;4.43;;;4.03;;
9657;SDS011;4867;48.112;11.622;2023-04-23T03:51:59;5.80;;;4.10;;
9657;SDS011;4867;48.112;11.622;2023-04-23T03:54:28;6.13;;;4.47;;
9657;SDS011;4867;48.112;11.622;2023-04-23T03:57:15;5.90;;;3.83;;
9657;SDS011;4867;48.112;11.622;2023-04-23T04:00:02;4.20;;;3.70;;
9657;SDS011;4867;48.112;11.622;2023-04-23T04:02:38;3.97;;;3.53;;
9657;SDS011;4867;48.112;11.622;2023-04-23T04:05:06;5.20;;;3.47;;
9657;SDS011;4867;48.112;11.622;2023-04-23T04:07:36;4.43;;;3.43;;
9657;SDS011;4867;48.112;11.622;2023-04-23T04:10:04;4.47;;;3.57;;
9657;SDS011;4867;48.112;11.622;2023-04-23T04:12:32;4.03;;;3.63;;
9657;SDS011;4867;48.112;11.622;2023-04-23T04:14:59;5.67;;;3.80;;
9657;SDS011;4867;48.112;11.622;2023-04-23T04:17:28;3.40;;;3.10;;
9657;SDS011;4867;48.112;11.622;2023-04-23T04:19:55;3.60;;;3.10;;
9657;SDS011;4867;48.112;11.622;2023-04-23T04:22:23;4.00;;;3.10;;
9657;SDS011;4867;48.112;11.622;2023-04-23T04:24:50;5.00;;;3.57;;
9657;SDS011;4867;48.112;11.622;2023-04-23T04:27:18;4.83;;;3.50;;
9657;SDS011;4867;48.112;11.622;2023-04-23T04:29:45;4.47;;;3.13;;
9657;SDS011;4867;48.112;11.622;2023-04-23T04:32:14;3.80;;;3.10;;
9657;SDS011;4867;48.112;11.622;2023-04-23T04:34:42;3.53;;;3.23;;
9657;SDS011;4867;48.112;11.622;2023-04-23T04:37:10;4.87;;;3.03;;
9657;SDS011;4867;48.112;11.622;2023-04-23T04:39:37;4.10;;;3.13;;
9657;SDS011;4867;48.112;11.622;2023-04-23T04:42:04;4.90;;;3.33;;
9657;SDS011;4867;48.112;11.622;2023-04-23T04:44:33;4.67;;;3.43;;
9657;SDS011;4867;48.112;11.622;2023-04-23T04:47:03;4.77;;;3.70;;
9657;SDS011;4867;48.112;11.622;2023-04-23T04:49:31;5.50;;;3.80;;
9657;SDS011;4867;48.112;11.622;2023-04-23T04:51:58;4.83;;;4.03;;
9657;SDS011;4867;48.112;11.622;2023-04-23T04:54:26;4.70;;;3.80;;
9657;SDS011;4867;48.112;11.622;2023-04-23T04:56:53;4.43;;;4.03;;
9657;SDS011;4867;48.112;11.622;2023-04-23T04:59:20;5.07;;;3.93;;
9657;SDS011;4867;48.112;11.622;2023-04-23T05:01:47;6.37;;;4.40;;
9657;SDS011;4867;48.112;11.622;2023-04-23T05:04:15;5.10;;;4.10;;
9657;SDS011;4867;48.112;11.622;2023-04-23T05:06:43;4.70;;;4.30;;
9657;SDS011;4867;48.112;11.622;2023-04-23T05:09:10;4.97;;;4.30;;
9657;SDS011;4867;48.112;11.622;2023-04-23T05:11:37;6.40;;;4.50;;
9657;SDS011;4867;48.112;11.622;2023-04-23T05:14:06;4.60;;;4.13;;
9657;SDS011;4867;48.112;11.622;2023-04-23T05:16:33;4.83;;;4.00;;
9657;SDS011;4867;48.112;11.622;2023-04-23T05:19:01;4.23;;;3.83;;
9657;SDS011;4867;48.112;11.622;2023-04-23T05:21:28;7.63;;;4.53;;
9657;SDS011;4867;48.112;11.622;2023-04-23T05:23:57;6.47;;;4.70;;
9657;SDS011;4867;48.112;11.622;2023-04-23T05:26:24;4.80;;;4.40;;
9657;SDS011;4867;48.112;11.622;2023-04-23T05:28:51;4.90;;;4.50;;
9657;SDS011;4867;48.112;11.622;2023-04-23T05:31:19;4.83;;;4.33;;
9657;SDS011;4867;48.112;11.622;2023-04-23T05:33:46;5.10;;;4.43;;
9657;SDS011;4867;48.112;11.622;2023-04-23T05:36:16;5.97;;;4.50;;
9657;SDS011;4867;48.112;11.622;2023-04-23T05:38:44;5.30;;;4.80;;
9657;SDS011;4867;48.112;11.622;2023-04-23T05:41:11;6.10;;;5.07;;
9657;SDS011;4867;48.112;11.622;2023-04-23T05:43:39;7.50;;;5.27;;
9657;SDS011;4867;48.112;11.622;2023-04-23T05:46:06;5.53;;;4.93;;
9657;SDS011;4867;48.112;11.622;2023-04-23T05:48:33;5.33;;;4.83;;
9657;SDS011;4867;48.112;11.622;2023-04-23T05:51:01;6.00;;;4.90;;
9657;SDS011;4867;48.112;11.622;2023-04-23T05:53:28;5.37;;;4.83;;
9657;SDS011;4867;48.112;11.622;2023-04-23T05:55:55;5.50;;;4.90;;
9657;SDS011;4867;48.112;11.622;2023-04-23T05:58:22;7.57;;;5.00;;
9657;SDS011;4867;48.112;11.622;2023-04-23T06:00:50;5.90;;;4.90;;
9657;SDS011;4867;48.112;11.622;2023-04-23T06:03:18;5.10;;;4.60;;
9657;SDS011;4867;48.112;11.622;2023-04-23T06:05:46;5.40;;;4.90;;
9657;SDS011;4867;48.112;11.622;2023-04-23T06:08:13;7.30;;;5.00;;
9657;SDS011;4867;48.112;11.622;2023-04-23T06:10:41;5.53;;;5.03;;
9657;SDS011;4867;48.112;11.622;2023-04-23T06:13:08;5.60;;;5.10;;
9657;SDS011;4867;48.112;11.622;2023-04-23T06:15:36;6.30;;;5.50;;
9657;SDS011;4867;48.112;11.622;2023-04-23T06:18:04;5.60;;;5.07;;
9657;SDS011;4867;48.112;11.622;2023-04-23T06:20:31;6.47;;;5.10;;
9657;SDS011;4867;48.112;11.622;2023-04-23T06:22:58;6.03;;;5.43;;
9657;SDS011;4867;48.112;11.622;2023-04-23T06:25:26;5.53;;;5.03;;
9657;SDS011;4867;48.112;11.622;2023-04-23T06:27:53;6.87;;;5.60;;
9657;SDS011;4867;48.112;11.622;2023-04-23T06:30:23;8.97;;;5.43;;
9657;SDS011;4867;48.112;11.622;2023-04-23T06:32:51;6.47;;;5.67;;
9657;SDS011;4867;48.112;11.622;2023-04-23T06:35:18;5.80;;;5.30;;
9657;SDS011;4867;48.112;11.622;2023-04-23T06:37:46;6.07;;;5.50;;
9657;SDS011;4867;48.112;11.622;2023-04-23T06:40:13;6.60;;;6.00;;
9657;SDS011;4867;48.112;11.622;2023-04-23T06:42:41;5.97;;;5.47;;
9657;SDS011;4867;48.112;11.622;2023-04-23T06:45:16;6.30;;;5.70;;
9657;SDS011;4867;48.112;11.622;2023-04-23T06:47:43;6.33;;;5.73;;
9657;SDS011;4867;48.112;11.622;2023-04-23T06:50:11;6.00;;;5.47;;
9657;SDS011;4867;48.112;11.622;2023-04-23T06:52:38;6.50;;;5.90;;
9657;SDS011;4867;48.112;11.622;2023-04-23T06:55:06;8.13;;;6.23;;
9657;SDS011;4867;48.112;11.622;2023-04-23T06:57:34;7.40;;;6.43;;
9657;SDS011;4867;48.112;11.622;2023-04-23T07:00:01;7.77;;;6.27;;
9657;SDS011;4867;48.112;11.622;2023-04-23T07:02:36;6.50;;;5.90;;
9657;SDS011;4867;48.112;11.622;2023-04-23T07:05:03;6.67;;;6.07;;
9657;SDS011;4867;48.112;11.622;2023-04-23T07:07:31;6.43;;;5.83;;
9657;SDS011;4867;48.112;11.622;2023-04-23T07:09:58;6.37;;;5.53;;
9657;SDS011;4867;48.112;11.622;2023-04-23T07:12:25;5.97;;;5.47;;
9657;SDS011;4867;48.112;11.622;2023-04-23T07:14:53;5.97;;;5.37;;
9657;SDS011;4867;48.112;11.622;2023-04-23T07:17:20;8.13;;;5.87;;
9657;SDS011;4867;48.112;11.622;2023-04-23T07:19:47;6.30;;;5.47;;
9657;SDS011;4867;48.112;11.622;2023-04-23T07:22:15;6.33;;;5.73;;
9657;SDS011;4867;48.112;11.622;2023-04-23T07:24:42;6.93;;;6.33;;
9657;SDS011;4867;48.112;11.622;2023-04-23T07:27:10;6.53;;;5.93;;
9657;SDS011;4867;48.112;11.622;2023-04-23T07:29:37;7.17;;;6.03;;
9657;SDS011;4867;48.112;11.622;2023-04-23T07:32:05;6.83;;;6.00;;
9657;SDS011;4867;48.112;11.622;2023-04-23T07:34:32;6.53;;;5.93;;
9657;SDS011;4867;48.112;11.622;2023-04-23T07:37:03;7.00;;;6.17;;
9657;SDS011;4867;48.112;11.622;2023-04-23T07:39:31;7.07;;;6.47;;
9657;SDS011;4867;48.112;11.622;2023-04-23T07:42:00;7.60;;;6.47;;
9657;SDS011;4867;48.112;11.622;2023-04-23T07:44:27;6.50;;;5.90;;
9657;SDS011;4867;48.112;11.622;2023-04-23T07:46:55;7.13;;;6.43;;
9657;SDS011;4867;48.112;11.622;2023-04-23T07:49:23;6.50;;;5.90;;
9657;SDS011;4867;48.112;11.622;2023-04-23T07:51:51;5.90;;;5.40;;
9657;SDS011;4867;48.112;11.622;2023-04-23T07:54:19;6.17;;;5.63;;
9657;SDS011;4867;48.112;11.622;2023-04-23T07:56:46;5.83;;;5.27;;
9657;SDS011;4867;48.112;11.622;2023-04-23T07:59:14;6.37;;;5.77;;
9657;SDS011;4867;48.112;11.622;2023-04-23T08:01:41;6.57;;;5.23;;
9657;SDS011;4867;48.112;11.622;2023-04-23T08:04:08;5.97;;;5.47;;
9657;SDS011;4867;48.112;11.622;2023-04-23T08:06:37;6.67;;;5.57;;
9657;SDS011;4867;48.112;11.622;2023-04-23T08:09:04;7.40;;;5.43;;
9657;SDS011;4867;48.112;11.622;2023-04-23T08:11:32;5.87;;;4.70;;
9657;SDS011;4867;48.112;11.622;2023-04-23T08:13:59;5.00;;;4.60;;
9657;SDS011;4867;48.112;11.622;2023-04-23T08:16:30;5.53;;;4.93;;
9657;SDS011;4867;48.112;11.622;2023-04-23T08:18:57;5.33;;;4.83;;
9657;SDS011;4867;48.112;11.622;2023-04-23T08:21:32;4.67;;;4.27;;
9657;SDS011;4867;48.112;11.622;2023-04-23T08:24:00;7.30;;;5.53;;
9657;SDS011;4867;48.112;11.622;2023-04-23T08:26:29;5.50;;;4.90;;
9657;SDS011;4867;48.112;11.622;2023-04-23T08:28:57;6.47;;;4.57;;
9657;SDS011;4867;48.112;11.622;2023-04-23T08:31:26;5.00;;;4.60;;
9657;SDS011;4867;48.112;11.622;2023-04-23T08:33:54;5.07;;;4.57;;
9657;SDS011;4867;48.112;11.622;2023-04-23T08:36:22;4.90;;;4.40;;
9657;SDS011;4867;48.112;11.622;2023-04-23T08:38:49;4.70;;;4.30;;
9657;SDS011;4867;48.112;11.622;2023-04-23T08:41:17;6.53;;;4.20;;
9657;SDS011;4867;48.112;11.622;2023-04-23T08:43:50;4.17;;;3.80;;
9657;SDS011;4867;48.112;11.622;2023-04-23T08:46:22;4.47;;;3.97;;
9657;SDS011;4867;48.112;11.622;2023-04-23T08:48:51;4.30;;;3.77;;
9657;SDS011;4867;48.112;11.622;2023-04-23T08:51:20;4.13;;;3.80;;
9657;SDS011;4867;48.112;11.622;2023-04-23T08:53:50;3.97;;;3.57;;
9657;SDS011;4867;48.112;11.622;2023-04-23T08:56:20;4.00;;;3.53;;
9657;SDS011;4867;48.112;11.622;2023-04-23T08:58:49;3.80;;;3.50;;
9657;SDS011;4867;48.112;11.622;2023-04-23T09:01:16;4.47;;;4.07;;
9657;SDS011;4867;48.112;11.622;2023-04-23T09:03:44;4.40;;;3.57;;
9657;SDS011;4867;48.112;11.622;2023-04-23T09:06:13;3.87;;;3.57;;
9657;SDS011;4867;48.112;11.622;2023-04-23T09:08:41;3.60;;;3.30;;
9657;SDS011;4867;48.112;11.622;2023-04-23T09:11:09;3.90;;;3.60;;
9657;SDS011;4867;48.112;11.622;2023-04-23T09:13:37;4.40;;;4.00;;
9657;SDS011;4867;48.112;11.622;2023-04-23T09:16:07;3.90;;;3.60;;
9657;SDS011;4867;48.112;11.622;2023-04-23T09:18:34;4.20;;;3.83;;
9657;SDS011;4867;48.112;11.622;2023-04-23T09:21:01;5.30;;;4.50;;
9657;SDS011;4867;48.112;11.622;2023-04-23T09:23:30;4.27;;;3.80;;
9657;SDS011;4867;48.112;11.622;2023-04-23T09:25:57;5.47;;;4.97;;
9657;SDS011;4867;48.112;11.622;2023-04-23T09:28:34;3.93;;;3.60;;
9657;SDS011;4867;48.112;11.622;2023-04-23T09:31:05;3.90;;;3.60;;
9657;SDS011;4867;48.112;11.622;2023-04-23T09:33:35;3.90;;;3.60;;
9657;SDS011;4867;48.112;11.622;2023-04-23T09:36:09;3.90;;;3.60;;
9657;SDS011;4867;48.112;11.622;2023-04-23T09:38:40;4.93;;;3.60;;
9657;SDS011;4867;48.112;11.622;2023-04-23T09:41:23;3.97;;;3.63;;
9657;SDS011;4867;48.112;11.622;2023-04-23T09:43:55;3.80;;;3.50;;
9657;SDS011;4867;48.112;11.622;2023-04-23T09:46:35;4.37;;;3.80;;
9657;SDS011;4867;48.112;11.622;2023-04-23T09:49:08;4.10;;;3.80;;
9657;SDS011;4867;48.112;11.622;2023-04-23T09:54:11;4.50;;;3.20;;
9657;SDS011;4867;48.112;11.622;2023-04-23T09:56:40;3.80;;;3.50;;
9657;SDS011;4867;48.112;11.622;2023-04-23T09:59:18;4.97;;;4.47;;
9657;SDS011;4867;48.112;11.622;2023-04-23T10:02:06;3.90;;;3.60;;
9657;SDS011;4867;48.112;11.622;2023-04-23T10:04:34;3.83;;;3.50;;
9657;SDS011;4867;48.112;11.622;2023-04-23T10:07:02;6.40;;;5.80;;
9657;SDS011;4867;48.112;11.622;2023-04-23T10:09:39;4.83;;;4.13;;
9657;SDS011;4867;48.112;11.622;2023-04-23T10:12:07;4.50;;;3.93;;
9657;SDS011;4867;48.112;11.622;2023-04-23T10:14:56;4.40;;;4.00;;
9657;SDS011;4867;48.112;11.622;2023-04-23T10:17:25;3.80;;;3.50;;
9657;SDS011;4867;48.112;11.622;2023-04-23T10:19:53;4.03;;;3.73;;
9657;SDS011;4867;48.112;11.622;2023-04-23T10:22:21;4.33;;;3.93;;
9657;SDS011;4867;48.112;11.622;2023-04-23T10:24:52;4.33;;;4.03;;
9657;SDS011;4867;48.112;11.622;2023-04-23T10:27:25;4.47;;;3.67;;
9657;SDS011;4867;48.112;11.622;2023-04-23T10:30:14;4.77;;;3.90;;
9657;SDS011;4867;48.112;11.622;2023-04-23T10:32:42;4.20;;;3.80;;
9657;SDS011;4867;48.112;11.622;2023-04-23T10:35:10;4.60;;;3.67;;
9657;SDS011;4867;48.112;11.622;2023-04-23T10:37:37;4.50;;;3.93;;
9657;SDS011;4867;48.112;11.622;2023-04-23T10:40:07;7.13;;;5.63;;
9657;SDS011;4867;48.112;11.622;2023-04-23T10:42:39;3.80;;;3.50;;
9657;SDS011;4867;48.112;11.622;2023-04-23T10:47:52;3.47;;;3.23;;
9657;SDS011;4867;48.112;11.622;2023-04-23T10:52:56;3.70;;;3.40;;
9657;SDS011;4867;48.112;11.622;2023-04-23T10:55:28;4.00;;;3.60;;
9657;SDS011;4867;48.112;11.622;2023-04-23T10:58:01;3.23;;;2.97;;
9657;SDS011;4867;48.112;11.622;2023-04-23T11:06:01;4.00;;;3.60;;
9657;SDS011;4867;48.112;11.622;2023-04-23T11:08:29;3.30;;;3.00;;
9657;SDS011;4867;48.112;11.622;2023-04-23T11:11:00;3.37;;;3.07;;
9657;SDS011;4867;48.112;11.622;2023-04-23T11:13:32;3.30;;;2.80;;
9657;SDS011;4867;48.112;11.622;2023-04-23T11:18:59;3.37;;;3.00;;
9657;SDS011;4867;48.112;11.622;2023-04-23T11:24:38;3.30;;;2.70;;
9657;SDS011;4867;48.112;11.622;2023-04-23T11:27:13;5.13;;;3.07;;
9657;SDS011;4867;48.112;11.622;2023-04-23T11:29:42;3.60;;;2.67;;
9657;SDS011;4867;48.112;11.622;2023-04-23T11:32:12;3.43;;;3.13;;
9657;SDS011;4867;48.112;11.622;2023-04-23T11:34:43;3.53;;;3.23;;
9657;SDS011;4867;48.112;11.622;2023-04-23T11:37:12;4.13;;;3.10;;
9657;SDS011;4867;48.112;11.622;2023-04-23T11:39:41;3.60;;;3.30;;
9657;SDS011;4867;48.112;11.622;2023-04-23T11:42:11;4.30;;;2.80;;
9657;SDS011;4867;48.112;11.622;2023-04-23T11:44:39;3.20;;;2.90;;
9657;SDS011;4867;48.112;11.622;2023-04-23T11:47:07;3.40;;;3.10;;
9657;SDS011;4867;48.112;11.622;2023-04-23T11:49:37;3.80;;;3.50;;
9657;SDS011;4867;48.112;11.622;2023-04-23T11:52:05;3.97;;;3.07;;
9657;SDS011;4867;48.112;11.622;2023-04-23T11:54:33;3.30;;;3.00;;
9657;SDS011;4867;48.112;11.622;2023-04-23T11:57:00;3.17;;;2.87;;
9657;SDS011;4867;48.112;11.622;2023-04-23T11:59:30;3.57;;;2.97;;
9657;SDS011;4867;48.112;11.622;2023-04-23T12:01:57;3.83;;;3.03;;
9657;SDS011;4867;48.112;11.622;2023-04-23T12:04:26;2.90;;;2.50;;
9657;SDS011;4867;48.112;11.622;2023-04-23T12:06:55;3.60;;;2.80;;
9657;SDS011;4867;48.112;11.622;2023-04-23T12:09:24;4.57;;;3.57;;
9657;SDS011;4867;48.112;11.622;2023-04-23T12:11:53;2.63;;;2.43;;
9657;SDS011;4867;48.112;11.622;2023-04-23T12:14:28;3.47;;;3.10;;
9657;SDS011;4867;48.112;11.622;2023-04-23T12:16:56;2.80;;;2.60;;
9657;SDS011;4867;48.112;11.622;2023-04-23T12:19:34;2.90;;;2.60;;
9657;SDS011;4867;48.112;11.622;2023-04-23T12:22:02;2.97;;;2.77;;
9657;SDS011;4867;48.112;11.622;2023-04-23T12:24:43;2.80;;;2.53;;
9657;SDS011;4867;48.112;11.622;2023-04-23T12:27:17;3.30;;;2.90;;
9657;SDS011;4867;48.112;11.622;2023-04-23T12:29:46;2.90;;;2.70;;
9657;SDS011;4867;48.112;11.622;2023-04-23T12:32:13;3.50;;;3.20;;
9657;SDS011;4867;48.112;11.622;2023-04-23T12:34:50;3.33;;;3.07;;
9657;SDS011;4867;48.112;11.622;2023-04-23T12:37:22;4.00;;;3.27;;
9657;SDS011;4867;48.112;11.622;2023-04-23T12:39:51;3.20;;;2.50;;
9657;SDS011;4867;48.112;11.622;2023-04-23T12:42:21;5.93;;;4.57;;
9657;SDS011;4867;48.112;11.622;2023-04-23T12:44:48;3.63;;;2.80;;
9657;SDS011;4867;48.112;11.622;2023-04-23T12:47:17;3.20;;;2.90;;
9657;SDS011;4867;48.112;11.622;2023-04-23T12:49:47;4.03;;;3.33;;
9657;SDS011;4867;48.112;11.622;2023-04-23T12:52:19;3.80;;;3.50;;
9657;SDS011;4867;48.112;11.622;2023-04-23T12:54:46;4.30;;;3.20;;
9657;SDS011;4867;48.112;11.622;2023-04-23T12:57:17;3.30;;;3.00;;
9657;SDS011;4867;48.112;11.622;2023-04-23T12:59:49;3.60;;;3.30;;
9657;SDS011;4867;48.112;11.622;2023-04-23T13:02:16;3.53;;;2.83;;
9657;SDS011;4867;48.112;11.622;2023-04-23T13:04:44;4.97;;;3.10;;
9657;SDS011;4867;48.112;11.622;2023-04-23T13:07:11;3.50;;;3.20;;
9657;SDS011;4867;48.112;11.622;2023-04-23T13:09:39;3.63;;;3.10;;
9657;SDS011;4867;48.112;11.622;2023-04-23T13:12:07;4.00;;;3.40;;
9657;SDS011;4867;48.112;11.622;2023-04-23T13:14:34;5.93;;;3.70;;
9657;SDS011;4867;48.112;11.622;2023-04-23T13:17:02;3.40;;;3.10;;
9657;SDS011;4867;48.112;11.622;2023-04-23T13:19:29;3.73;;;3.17;;
9657;SDS011;4867;48.112;11.622;2023-04-23T13:21:57;3.50;;;3.20;;
9657;SDS011;4867;48.112;11.622;2023-04-23T13:24:24;3.40;;;3.10;;
9657;SDS011;4867;48.112;11.622;2023-04-23T13:26:51;4.13;;;3.40;;
9657;SDS011;4867;48.112;11.622;2023-04-23T13:29:18;3.60;;;3.30;;
9657;SDS011;4867;48.112;11.622;2023-04-23T13:31:45;5.07;;;3.60;;
9657;SDS011;4867;48.112;11.622;2023-04-23T13:34:13;4.07;;;3.67;;
9657;SDS011;4867;48.112;11.622;2023-04-23T13:36:40;3.60;;;3.30;;
9657;SDS011;4867;48.112;11.622;2023-04-23T13:39:07;5.03;;;3.30;;
9657;SDS011;4867;48.112;11.622;2023-04-23T13:41:35;4.10;;;3.70;;
9657;SDS011;4867;48.112;11.622;2023-04-23T13:44:03;4.33;;;4.00;;
9657;SDS011;4867;48.112;11.622;2023-04-23T13:46:30;4.00;;;3.70;;
9657;SDS011;4867;48.112;11.622;2023-04-23T13:48:57;4.07;;;3.63;;
9657;SDS011;4867;48.112;11.622;2023-04-23T13:51:26;5.30;;;3.70;;
9657;SDS011;4867;48.112;11.622;2023-04-23T13:54:01;4.70;;;3.63;;
9657;SDS011;4867;48.112;11.622;2023-04-23T13:56:29;5.33;;;3.80;;
9657;SDS011;4867;48.112;11.622;2023-04-23T13:58:57;3.97;;;3.67;;
9657;SDS011;4867;48.112;11.622;2023-04-23T14:01:32;4.00;;;3.70;;
9657;SDS011;4867;48.112;11.622;2023-04-23T14:03:59;4.13;;;3.50;;
9657;SDS011;4867;48.112;11.622;2023-04-23T14:06:26;3.80;;;3.50;;
9657;SDS011;4867;48.112;11.622;2023-04-23T14:08:54;4.03;;;3.63;;
9657;SDS011;4867;48.112;11.622;2023-04-23T14:11:21;4.23;;;3.60;;
9657;SDS011;4867;48.112;11.622;2023-04-23T14:13:48;3.93;;;3.40;;
9657;SDS011;4867;48.112;11.622;2023-04-23T14:16:16;3.87;;;3.50;;
9657;SDS011;4867;48.112;11.622;2023-04-23T14:18:43;3.87;;;3.57;;
9657;SDS011;4867;48.112;11.622;2023-04-23T14:21:11;3.70;;;3.40;;
9657;SDS011;4867;48.112;11.622;2023-04-23T14:23:43;4.30;;;3.77;;
9657;SDS011;4867;48.112;11.622;2023-04-23T14:26:19;4.17;;;3.10;;
9657;SDS011;4867;48.112;11.622;2023-04-23T14:32:07;3.60;;;3.30;;
9657;SDS011;4867;48.112;11.622;2023-04-23T14:34:34;3.63;;;3.33;;
9657;SDS011;4867;48.112;11.622;2023-04-23T14:37:02;4.77;;;3.20;;
9657;SDS011;4867;48.112;11.622;2023-04-23T14:39:29;5.30;;;3.60;;
9657;SDS011;4867;48.112;11.622;2023-04-23T14:41:57;3.73;;;3.37;;
9657;SDS011;4867;48.112;11.622;2023-04-23T14:44:24;4.70;;;3.40;;
9657;SDS011;4867;48.112;11.622;2023-04-23T14:46:54;4.13;;;3.30;;
9657;SDS011;4867;48.112;11.622;2023-04-23T14:49:22;3.63;;;3.20;;
9657;SDS011;4867;48.112;11.622;2023-04-23T14:51:50;5.00;;;3.50;;
9657;SDS011;4867;48.112;11.622;2023-04-23T14:54:21;3.47;;;3.00;;
9657;SDS011;4867;48.112;11.622;2023-04-23T14:56:49;4.30;;;3.10;;
9657;SDS011;4867;48.112;11.622;2023-04-23T14:59:17;3.97;;;3.20;;
9657;SDS011;4867;48.112;11.622;2023-04-23T15:01:44;3.63;;;3.10;;
9657;SDS011;4867;48.112;11.622;2023-04-23T15:04:12;3.77;;;3.40;;
9657;SDS011;4867;48.112;11.622;2023-04-23T15:06:39;22.57;;;4.50;;
9657;SDS011;4867;48.112;11.622;2023-04-23T15:09:06;4.73;;;3.30;;
9657;SDS011;4867;48.112;11.622;2023-04-23T15:11:34;4.40;;;3.50;;
9657;SDS011;4867;48.112;11.622;2023-04-23T15:14:19;3.50;;;3.20;;
9657;SDS011;4867;48.112;11.622;2023-04-23T15:16:51;3.73;;;3.37;;
9657;SDS011;4867;48.112;11.622;2023-04-23T15:19:18;3.60;;;3.27;;
9657;SDS011;4867;48.112;11.622;2023-04-23T15:21:46;3.50;;;3.20;;
9657;SDS011;4867;48.112;11.622;2023-04-23T15:24:14;5.70;;;3.43;;
9657;SDS011;4867;48.112;11.622;2023-04-23T15:26:42;10.63;;;3.97;;
9657;SDS011;4867;48.112;11.622;2023-04-23T15:29:11;4.23;;;3.63;;
9657;SDS011;4867;48.112;11.622;2023-04-23T15:31:39;5.00;;;4.30;;